createdAt,value
2023-02-16T00:01:53.422Z,7.37
2023-02-16T00:04:21.804Z,7.49
2023-02-16T00:06:49.482Z,7.38
2023-02-16T00:09:16.636Z,7.30
2023-02-16T00:11:43.723Z,7.35
2023-02-16T00:14:12.342Z,7.29
2023-02-16T00:16:39.059Z,7.21
2023-02-16T00:19:20.894Z,7.19
2023-02-16T00:21:47.843Z,6.98
2023-02-16T00:24:15.155Z,7.07
2023-02-16T00:26:42.722Z,7.02
2023-02-16T00:29:20.998Z,7.12
2023-02-16T00:31:48.039Z,7.17
2023-02-16T00:34:36.901Z,7.07
2023-02-16T00:37:05.407Z,7.20
2023-02-16T00:39:32.766Z,7.15
2023-02-16T00:42:01.709Z,6.98
2023-02-16T00:44:33.923Z,7.05
2023-02-16T00:47:04.217Z,6.99
2023-02-16T00:49:30.913Z,6.89
2023-02-16T00:51:57.844Z,6.94
2023-02-16T00:54:24.542Z,6.97
2023-02-16T00:56:51.278Z,6.93
2023-02-16T00:59:20.675Z,6.91
2023-02-16T01:01:49.331Z,6.92
2023-02-16T01:04:20.793Z,6.77
2023-02-16T01:06:47.451Z,6.84
2023-02-16T01:09:17.611Z,6.83
2023-02-16T01:11:44.271Z,6.76
2023-02-16T01:14:12.969Z,6.77
2023-02-16T01:16:42.486Z,6.72
2023-02-16T01:19:12.419Z,6.78
2023-02-16T01:21:39.294Z,6.74
2023-02-16T01:24:06.435Z,6.68
2023-02-16T01:26:39.642Z,6.73
2023-02-16T01:29:06.495Z,6.56
2023-02-16T01:31:33.329Z,6.61
2023-02-16T01:34:00.112Z,6.71
2023-02-16T01:36:31.429Z,6.63
2023-02-16T01:38:58.029Z,6.58
2023-02-16T01:41:38.804Z,6.61
2023-02-16T01:44:13.010Z,6.63
2023-02-16T01:46:46.011Z,6.62
2023-02-16T01:49:13.821Z,6.62
2023-02-16T01:51:51.772Z,6.60
2023-02-16T01:54:29.199Z,6.62
2023-02-16T01:57:00.104Z,6.52
2023-02-16T01:59:40.144Z,6.56
2023-02-16T02:02:14.634Z,6.51
2023-02-16T02:04:46.860Z,6.45
2023-02-16T02:07:25.568Z,6.39
2023-02-16T02:10:01.110Z,6.33
2023-02-16T02:12:34.590Z,6.35
2023-02-16T02:15:01.213Z,6.43
2023-02-16T02:17:28.841Z,6.42
2023-02-16T02:20:02.518Z,6.39
2023-02-16T02:23:05.654Z,6.45
2023-02-16T02:25:52.335Z,6.42
2023-02-16T02:28:29.135Z,6.34
2023-02-16T02:31:05.786Z,6.36
2023-02-16T02:33:46.888Z,6.26
2023-02-16T02:36:26.855Z,6.35
2023-02-16T02:39:03.420Z,6.24
2023-02-16T02:41:38.024Z,6.35
2023-02-16T02:44:08.785Z,6.21
2023-02-16T02:46:36.742Z,6.28
2023-02-16T02:49:03.759Z,6.17
2023-02-16T02:51:30.629Z,6.26
2023-02-16T02:54:03.060Z,6.25
2023-02-16T02:56:29.884Z,6.13
2023-02-16T02:59:00.600Z,6.24
2023-02-16T03:01:29.642Z,6.18
2023-02-16T03:03:57.802Z,6.27
2023-02-16T03:06:27.929Z,6.15
2023-02-16T03:08:59.713Z,6.05
2023-02-16T03:11:27.943Z,6.17
2023-02-16T03:13:59.274Z,6.01
2023-02-16T03:16:31.492Z,6.07
2023-02-16T03:18:59.198Z,6.14
2023-02-16T03:21:27.887Z,6.11
2023-02-16T03:23:56.112Z,5.99
2023-02-16T03:26:24.151Z,6.00
2023-02-16T03:28:51.844Z,6.05
2023-02-16T03:31:21.905Z,6.09
2023-02-16T03:33:51.651Z,6.22
2023-02-16T03:36:18.389Z,6.26
2023-02-16T03:38:45.194Z,6.33
2023-02-16T03:41:11.726Z,6.23
2023-02-16T03:43:38.321Z,6.22
2023-02-16T03:46:05.511Z,6.37
2023-02-16T03:48:32.126Z,6.23
2023-02-16T03:51:00.023Z,6.27
2023-02-16T03:53:26.829Z,6.35
2023-02-16T03:55:53.747Z,6.31
2023-02-16T03:58:24.145Z,6.34
2023-02-16T04:00:51.563Z,6.22
2023-02-16T04:03:18.438Z,6.26
2023-02-16T04:05:45.617Z,6.37
2023-02-16T04:08:13.620Z,6.32
2023-02-16T04:10:40.369Z,6.29
2023-02-16T04:13:07.390Z,6.20
2023-02-16T04:15:34.313Z,6.27
2023-02-16T04:18:01.260Z,6.29
2023-02-16T04:20:29.973Z,6.39
2023-02-16T04:22:57.002Z,6.34
2023-02-16T04:25:25.519Z,6.21
2023-02-16T04:27:52.590Z,6.12
2023-02-16T04:30:21.114Z,6.22
2023-02-16T04:32:48.294Z,6.13
2023-02-16T04:35:15.520Z,6.03
2023-02-16T04:37:42.389Z,6.24
2023-02-16T04:40:10.821Z,6.23
2023-02-16T04:42:39.049Z,6.11
2023-02-16T04:45:06.611Z,6.16
2023-02-16T04:47:33.541Z,6.10
2023-02-16T04:50:00.474Z,5.99
2023-02-16T04:52:27.219Z,5.97
2023-02-16T04:54:53.773Z,6.08
2023-02-16T04:57:20.509Z,6.07
2023-02-16T04:59:48.548Z,6.08
2023-02-16T05:02:15.195Z,5.93
2023-02-16T05:04:41.849Z,5.90
2023-02-16T05:07:11.316Z,5.93
2023-02-16T05:09:37.883Z,6.02
2023-02-16T05:12:04.572Z,5.89
2023-02-16T05:14:33.028Z,5.87
2023-02-16T05:17:01.051Z,5.96
2023-02-16T05:19:27.755Z,5.99
2023-02-16T05:21:54.708Z,5.95
2023-02-16T05:24:21.276Z,5.90
2023-02-16T05:26:47.849Z,5.84
2023-02-16T05:29:14.554Z,5.94
2023-02-16T05:31:41.238Z,5.80
2023-02-16T05:34:09.270Z,5.85
2023-02-16T05:36:36.138Z,5.84
2023-02-16T05:39:03.122Z,5.67
2023-02-16T05:41:29.868Z,5.76
2023-02-16T05:44:03.626Z,5.82
2023-02-16T05:46:32.641Z,5.89
2023-02-16T05:48:59.462Z,5.76
2023-02-16T05:51:27.980Z,5.82
2023-02-16T05:53:58.533Z,5.63
2023-02-16T05:56:27.692Z,5.70
2023-02-16T05:58:55.247Z,5.81
2023-02-16T06:01:22.204Z,5.82
2023-02-16T06:03:52.156Z,5.71
2023-02-16T06:06:19.061Z,5.77
2023-02-16T06:08:47.611Z,5.84
2023-02-16T06:11:14.438Z,5.80
2023-02-16T06:13:43.553Z,5.92
2023-02-16T06:16:10.259Z,6.03
2023-02-16T06:18:36.828Z,6.06
2023-02-16T06:21:04.031Z,6.15
2023-02-16T06:23:30.936Z,6.29
2023-02-16T06:25:58.968Z,6.32
2023-02-16T06:28:25.519Z,6.15
2023-02-16T06:30:53.291Z,6.39
2023-02-16T06:33:19.925Z,6.43
2023-02-16T06:35:46.481Z,6.62
2023-02-16T06:38:12.958Z,6.75
2023-02-16T06:40:39.580Z,6.85
2023-02-16T06:43:07.506Z,6.79
2023-02-16T06:45:34.187Z,6.92
2023-02-16T06:48:00.894Z,6.92
2023-02-16T06:50:27.735Z,7.00
2023-02-16T06:52:54.235Z,7.02
2023-02-16T06:55:21.065Z,7.06
2023-02-16T06:57:47.640Z,7.06
2023-02-16T07:00:16.964Z,7.21
2023-02-16T07:02:43.608Z,7.11
2023-02-16T07:05:10.115Z,7.44
2023-02-16T07:07:36.663Z,7.55
2023-02-16T07:10:04.064Z,7.71
2023-02-16T07:12:30.663Z,7.53
2023-02-16T07:14:57.254Z,7.80
2023-02-16T07:17:25.207Z,7.93
2023-02-16T07:19:51.845Z,7.82
2023-02-16T07:22:18.492Z,7.84
2023-02-16T07:24:45.110Z,7.76
2023-02-16T07:27:11.694Z,7.87
2023-02-16T07:29:38.258Z,7.91
2023-02-16T07:32:05.380Z,7.88
2023-02-16T07:34:33.419Z,7.90
2023-02-16T07:37:00.309Z,7.71
2023-02-16T07:39:26.957Z,7.69
2023-02-16T07:41:53.502Z,7.74
2023-02-16T07:44:20.280Z,7.93
2023-02-16T07:46:46.848Z,7.90
2023-02-16T07:49:13.469Z,8.08
2023-02-16T07:51:41.584Z,8.08
2023-02-16T07:54:08.123Z,8.00
2023-02-16T07:56:35.228Z,8.15
2023-02-16T07:59:03.897Z,8.19
2023-02-16T08:01:31.164Z,8.32
2023-02-16T08:03:58.080Z,8.26
2023-02-16T08:06:24.826Z,8.30
2023-02-16T08:08:52.757Z,8.80
2023-02-16T08:11:21.230Z,8.91
2023-02-16T08:13:48.401Z,8.97
2023-02-16T08:16:17.124Z,9.16
2023-02-16T08:18:43.997Z,9.23
2023-02-16T08:21:12.045Z,9.04
2023-02-16T08:23:38.643Z,9.17
2023-02-16T08:26:10.129Z,9.24
2023-02-16T08:28:37.026Z,9.13
2023-02-16T08:31:03.937Z,9.23
2023-02-16T08:33:30.616Z,9.35
2023-02-16T08:35:57.188Z,9.35
2023-02-16T08:38:23.878Z,9.12
2023-02-16T08:41:19.827Z,8.84
2023-02-16T08:43:49.805Z,8.88
2023-02-16T08:46:17.569Z,8.81
2023-02-16T08:48:44.201Z,8.69
2023-02-16T08:51:14.230Z,9.01
2023-02-16T08:53:40.917Z,9.20
2023-02-16T08:56:07.405Z,9.33
2023-02-16T08:58:33.991Z,9.71
2023-02-16T09:01:05.488Z,9.87
2023-02-16T09:03:32.882Z,10.05
2023-02-16T09:06:02.634Z,10.45
2023-02-16T09:08:29.663Z,10.74
2023-02-16T09:10:56.267Z,10.73
2023-02-16T09:13:22.992Z,10.64
2023-02-16T09:15:49.615Z,10.81
2023-02-16T09:18:17.538Z,11.05
2023-02-16T09:20:46.936Z,11.25
2023-02-16T09:23:14.290Z,11.53
2023-02-16T09:25:40.918Z,11.84
2023-02-16T09:28:07.771Z,12.02
2023-02-16T09:30:34.460Z,11.96
2023-02-16T09:33:01.743Z,12.24
2023-02-16T09:35:29.837Z,12.58
2023-02-16T09:37:57.035Z,12.43
2023-02-16T09:40:24.279Z,12.44
2023-02-16T09:43:03.339Z,12.33
2023-02-16T09:45:32.090Z,12.40
2023-02-16T09:47:58.730Z,12.23
2023-02-16T09:50:52.131Z,12.37
2023-02-16T09:53:21.778Z,12.11
2023-02-16T09:55:54.551Z,11.82
2023-02-16T09:58:25.751Z,12.13
2023-02-16T10:00:55.749Z,12.42
2023-02-16T10:03:40.839Z,12.67
2023-02-16T10:06:41.967Z,12.67
2023-02-16T10:09:12.672Z,12.61
2023-02-16T10:11:43.800Z,12.53
2023-02-16T10:14:18.374Z,12.50
2023-02-16T10:16:52.706Z,12.34
2023-02-16T10:19:24.110Z,12.31
2023-02-16T10:21:56.301Z,12.36
2023-02-16T10:24:26.241Z,12.28
2023-02-16T10:26:59.772Z,12.24
2023-02-16T10:29:26.419Z,12.14
2023-02-16T10:32:05.127Z,11.98
2023-02-16T10:34:45.350Z,11.89
2023-02-16T10:37:28.958Z,11.66
2023-02-16T10:40:10.598Z,11.92
2023-02-16T10:42:42.130Z,12.14
2023-02-16T10:45:20.357Z,12.05
2023-02-16T10:47:47.020Z,12.29
2023-02-16T10:50:20.127Z,12.34
2023-02-16T10:52:46.940Z,12.36
2023-02-16T10:55:16.070Z,12.40
2023-02-16T10:57:42.790Z,11.98
2023-02-16T11:00:16.487Z,12.48
2023-02-16T11:02:46.356Z,12.64
2023-02-16T11:05:31.609Z,12.80
2023-02-16T11:08:00.045Z,12.93
2023-02-16T11:10:35.590Z,13.10
2023-02-16T11:13:03.052Z,13.45
2023-02-16T11:15:30.708Z,13.45
2023-02-16T11:18:01.063Z,13.66
2023-02-16T11:20:30.362Z,14.08
2023-02-16T11:23:13.330Z,14.08
2023-02-16T11:25:41.443Z,14.04
2023-02-16T11:28:08.274Z,14.35
2023-02-16T11:30:37.112Z,14.18
2023-02-16T11:33:05.964Z,14.04
2023-02-16T11:35:41.879Z,13.93
2023-02-16T11:38:26.453Z,13.75
2023-02-16T11:40:56.016Z,13.85
2023-02-16T11:43:27.455Z,13.84
2023-02-16T11:46:02.159Z,13.91
2023-02-16T11:48:31.460Z,14.11
2023-02-16T11:51:02.510Z,14.22
2023-02-16T11:53:33.152Z,13.92
2023-02-16T11:56:16.914Z,13.39
2023-02-16T11:58:43.610Z,13.50
2023-02-16T12:01:22.324Z,13.69
2023-02-16T12:04:00.480Z,13.78
2023-02-16T12:06:37.569Z,13.77
2023-02-16T12:09:18.780Z,13.94
2023-02-16T12:11:57.592Z,13.82
2023-02-16T12:14:36.479Z,13.71
2023-02-16T12:17:17.257Z,13.82
2023-02-16T12:19:45.923Z,13.67
2023-02-16T12:22:28.052Z,13.61
2023-02-16T12:25:12.511Z,13.73
2023-02-16T12:27:49.212Z,13.78
2023-02-16T12:30:31.522Z,14.11
2023-02-16T12:33:14.162Z,14.22
2023-02-16T12:36:10.101Z,14.28
2023-02-16T12:38:48.377Z,14.43
2023-02-16T12:41:26.465Z,14.69
2023-02-16T12:44:02.421Z,14.90
2023-02-16T12:46:35.833Z,14.99
2023-02-16T12:49:16.714Z,15.04
2023-02-16T12:51:47.932Z,15.23
2023-02-16T12:54:19.381Z,14.77
2023-02-16T12:56:52.084Z,15.02
2023-02-16T12:59:30.619Z,14.91
2023-02-16T13:02:00.643Z,14.75
2023-02-16T13:04:37.577Z,14.83
2023-02-16T13:07:11.950Z,14.74
2023-02-16T13:09:44.118Z,14.69
2023-02-16T13:12:20.838Z,14.93
2023-02-16T13:14:58.357Z,15.08
2023-02-16T13:17:33.095Z,15.25
2023-02-16T13:19:59.690Z,15.15
2023-02-16T13:22:46.611Z,15.24
2023-02-16T13:25:31.264Z,15.36
2023-02-16T13:28:09.369Z,15.03
2023-02-16T13:31:09.174Z,15.10
2023-02-16T13:33:51.381Z,15.22
2023-02-16T13:36:33.246Z,15.07
2023-02-16T13:39:20.666Z,15.26
2023-02-16T13:42:05.536Z,15.25
2023-02-16T13:44:37.436Z,15.37
2023-02-16T13:47:07.516Z,15.44
2023-02-16T13:49:36.613Z,15.71
2023-02-16T13:52:08.799Z,15.76
2023-02-16T13:54:38.138Z,15.89
2023-02-16T13:57:04.816Z,15.96
2023-02-16T14:00:00.457Z,16.04
2023-02-16T14:02:56.406Z,16.22
2023-02-16T14:05:27.033Z,16.26
2023-02-16T14:11:02.245Z,15.79
2023-02-16T14:13:32.173Z,15.48
2023-02-16T14:16:05.490Z,15.63
2023-02-16T14:18:42.042Z,15.35
2023-02-16T14:21:18.605Z,15.56
2023-02-16T14:23:53.947Z,15.46
2023-02-16T14:26:20.809Z,15.79
2023-02-16T14:29:10.862Z,15.15
2023-02-16T14:31:47.199Z,15.30
2023-02-16T14:34:21.384Z,15.51
2023-02-16T14:37:26.412Z,15.72
2023-02-16T14:40:07.461Z,15.70
2023-02-16T14:42:36.505Z,15.15
2023-02-16T14:45:29.993Z,15.30
2023-02-16T14:48:10.777Z,15.06
2023-02-16T14:50:59.635Z,14.84
2023-02-16T14:54:02.606Z,14.89
2023-02-16T14:56:40.283Z,14.60
2023-02-16T14:59:17.499Z,14.55
2023-02-16T15:01:45.753Z,14.56
2023-02-16T15:04:12.539Z,14.74
2023-02-16T15:06:44.359Z,14.84
2023-02-16T15:09:16.827Z,14.82
2023-02-16T15:11:49.812Z,14.58
2023-02-16T15:14:16.495Z,14.62
2023-02-16T15:16:44.257Z,14.45
2023-02-16T15:19:17.535Z,14.23
2023-02-16T15:21:45.554Z,14.24
2023-02-16T15:24:22.441Z,14.18
2023-02-16T15:26:55.070Z,14.38
2023-02-16T15:29:24.221Z,14.49
2023-02-16T15:31:50.908Z,14.55
2023-02-16T15:34:27.364Z,14.44
2023-02-16T15:36:56.494Z,14.50
2023-02-16T15:39:37.902Z,14.45
2023-02-16T15:42:19.810Z,14.30
2023-02-16T15:44:46.885Z,14.34
2023-02-16T15:47:15.511Z,14.37
2023-02-16T15:49:42.536Z,14.45
2023-02-16T15:52:15.563Z,14.59
2023-02-16T15:54:43.272Z,14.27
2023-02-16T15:57:18.448Z,14.40
2023-02-16T15:59:47.713Z,14.41
2023-02-16T16:02:17.087Z,14.40
2023-02-16T16:04:47.269Z,14.34
2023-02-16T16:07:19.168Z,14.19
2023-02-16T16:09:46.457Z,14.29
2023-02-16T16:12:15.995Z,14.22
2023-02-16T16:14:49.098Z,13.96
2023-02-16T16:17:20.826Z,13.97
2023-02-16T16:19:47.413Z,14.07
2023-02-16T16:22:31.142Z,13.82
2023-02-16T16:24:57.717Z,13.94
2023-02-16T16:27:30.608Z,13.86
2023-02-16T16:30:11.587Z,13.85
2023-02-16T16:32:38.677Z,13.86
2023-02-16T16:35:19.303Z,13.75
2023-02-16T16:37:51.131Z,13.77
2023-02-16T16:40:24.344Z,13.91
2023-02-16T16:43:09.267Z,13.91
2023-02-16T16:45:37.520Z,13.85
2023-02-16T16:48:10.145Z,13.76
2023-02-16T16:50:39.715Z,13.62
2023-02-16T16:53:54.191Z,13.58
2023-02-16T16:56:22.381Z,13.65
2023-02-16T16:58:49.968Z,13.67
2023-02-16T17:01:16.886Z,13.56
2023-02-16T17:03:43.799Z,13.63
2023-02-16T17:06:10.959Z,13.60
2023-02-16T17:08:37.569Z,13.57
2023-02-16T17:11:04.525Z,13.59
2023-02-16T17:13:32.439Z,13.56
2023-02-16T17:16:02.663Z,13.29
2023-02-16T17:18:29.383Z,13.41
2023-02-16T17:20:56.155Z,13.41
2023-02-16T17:23:23.017Z,13.48
2023-02-16T17:25:50.020Z,13.52
2023-02-16T17:28:17.992Z,13.46
2023-02-16T17:30:46.244Z,13.37
2023-02-16T17:33:12.882Z,13.50
2023-02-16T17:35:42.302Z,13.42
2023-02-16T17:38:09.901Z,13.51
2023-02-16T17:40:37.159Z,13.43
2023-02-16T17:43:14.058Z,13.33
2023-02-16T17:45:43.717Z,13.29
2023-02-16T17:48:15.693Z,13.21
2023-02-16T17:50:42.277Z,13.25
2023-02-16T17:53:13.506Z,13.31
2023-02-16T17:55:53.185Z,13.32
2023-02-16T17:58:44.679Z,13.33
2023-02-16T18:04:54.710Z,12.94
2023-02-16T21:01:40.759Z,11.91
2023-02-16T21:04:10.027Z,11.95
2023-02-16T21:06:37.477Z,12.00
2023-02-16T21:09:05.285Z,12.10
2023-02-16T21:11:32.190Z,12.12
2023-02-16T21:14:00.225Z,11.94
2023-02-16T21:16:26.917Z,12.04
2023-02-16T21:18:54.041Z,12.05
2023-02-16T21:21:23.153Z,12.16
2023-02-16T21:23:51.927Z,12.11
2023-02-16T21:26:19.769Z,11.94
2023-02-16T21:28:46.654Z,12.15
2023-02-16T21:31:16.937Z,11.86
2023-02-16T21:33:43.738Z,11.76
2023-02-16T21:36:12.087Z,11.92
2023-02-16T21:38:40.663Z,12.06
2023-02-16T21:41:09.276Z,12.34
2023-02-16T21:43:35.858Z,12.22
2023-02-16T21:46:02.594Z,11.96
2023-02-16T21:48:30.587Z,12.11
2023-02-16T21:51:01.526Z,12.17
2023-02-16T21:53:29.539Z,12.17
2023-02-16T21:55:57.968Z,12.41
2023-02-16T21:58:25.372Z,12.43
2023-02-16T22:00:52.405Z,12.51
2023-02-16T22:03:19.642Z,12.38
2023-02-16T22:05:47.834Z,12.31
2023-02-16T22:08:14.745Z,12.44
2023-02-16T22:10:41.383Z,12.52
2023-02-16T22:13:07.998Z,12.43
2023-02-16T22:15:35.783Z,12.60
2023-02-16T22:18:02.556Z,12.59
2023-02-16T22:20:29.235Z,12.42
2023-02-16T22:22:57.168Z,12.60
2023-02-16T22:25:23.829Z,12.58
2023-02-16T22:27:50.591Z,12.37
2023-02-16T22:30:17.597Z,12.46
2023-02-16T22:32:44.238Z,12.49
2023-02-16T22:35:10.832Z,12.51
2023-02-16T22:37:37.464Z,12.18
2023-02-16T22:40:07.144Z,12.57
2023-02-16T22:42:34.140Z,12.49
2023-02-16T22:45:00.685Z,12.53
2023-02-16T22:47:27.264Z,12.36
2023-02-16T22:49:53.863Z,12.45
2023-02-16T22:52:20.931Z,12.67
2023-02-16T22:54:49.830Z,12.61
2023-02-16T22:57:18.082Z,12.70
2023-02-16T22:59:44.730Z,12.55
2023-02-16T23:02:11.297Z,12.64
2023-02-16T23:04:37.940Z,12.29
2023-02-16T23:07:04.413Z,12.66
2023-02-16T23:09:31.121Z,12.71
2023-02-16T23:11:57.696Z,12.82
2023-02-16T23:14:26.269Z,12.72
2023-02-16T23:16:55.325Z,12.63
2023-02-16T23:19:23.906Z,12.84
2023-02-16T23:21:51.476Z,12.52
2023-02-16T23:24:20.411Z,12.87
2023-02-16T23:26:47.502Z,13.00
2023-02-16T23:29:14.737Z,12.90
2023-02-16T23:31:44.874Z,12.99
2023-02-16T23:34:12.110Z,12.89
2023-02-16T23:36:39.804Z,12.84
2023-02-16T23:39:09.001Z,12.79
2023-02-16T23:41:36.344Z,12.75
2023-02-16T23:44:03.443Z,12.55
2023-02-16T23:46:30.310Z,12.65
2023-02-16T23:48:58.342Z,12.70
2023-02-16T23:51:25.049Z,12.81
2023-02-16T23:53:51.841Z,12.82
2023-02-16T23:56:20.416Z,12.94
2023-02-16T23:58:47.456Z,12.76
